sensor_id;sensor_type;location;lat;lon;timestamp;P1;durP1;ratioP1;P2;durP2;ratioP2
13951;SDS011;39535;52.192;9.886;2023-03-26T00:01:34;4.17;;;3.77;;
13951;SDS011;39535;52.192;9.886;2023-03-26T00:04:01;4.90;;;3.80;;
13951;SDS011;39535;52.192;9.886;2023-03-26T00:06:29;6.03;;;3.87;;
13951;SDS011;39535;52.192;9.886;2023-03-26T00:08:58;7.13;;;4.07;;
13951;SDS011;39535;52.192;9.886;2023-03-26T00:11:26;4.93;;;4.40;;
13951;SDS011;39535;52.192;9.886;2023-03-26T00:13:54;6.73;;;4.10;;
13951;SDS011;39535;52.192;9.886;2023-03-26T00:16:22;5.33;;;3.60;;
13951;SDS011;39535;52.192;9.886;2023-03-26T00:18:50;5.20;;;4.30;;
13951;SDS011;39535;52.192;9.886;2023-03-26T00:21:18;5.60;;;4.43;;
13951;SDS011;39535;52.192;9.886;2023-03-26T00:23:45;6.73;;;4.63;;
13951;SDS011;39535;52.192;9.886;2023-03-26T00:26:13;8.03;;;4.70;;
13951;SDS011;39535;52.192;9.886;2023-03-26T00:28:41;6.13;;;4.67;;
13951;SDS011;39535;52.192;9.886;2023-03-26T00:31:10;5.70;;;4.70;;
13951;SDS011;39535;52.192;9.886;2023-03-26T00:33:37;4.70;;;4.20;;
13951;SDS011;39535;52.192;9.886;2023-03-26T00:36:07;5.27;;;4.80;;
13951;SDS011;39535;52.192;9.886;2023-03-26T00:38:35;5.47;;;4.37;;
13951;SDS011;39535;52.192;9.886;2023-03-26T00:41:04;5.27;;;4.23;;
13951;SDS011;39535;52.192;9.886;2023-03-26T00:43:32;5.50;;;4.40;;
13951;SDS011;39535;52.192;9.886;2023-03-26T00:46:00;5.57;;;4.07;;
13951;SDS011;39535;52.192;9.886;2023-03-26T00:48:27;5.87;;;4.40;;
13951;SDS011;39535;52.192;9.886;2023-03-26T00:50:54;5.90;;;4.83;;
13951;SDS011;39535;52.192;9.886;2023-03-26T00:53:23;3.90;;;3.33;;
13951;SDS011;39535;52.192;9.886;2023-03-26T00:55:49;4.50;;;4.10;;
13951;SDS011;39535;52.192;9.886;2023-03-26T00:58:15;4.90;;;3.57;;
13951;SDS011;39535;52.192;9.886;2023-03-26T01:00:43;8.10;;;3.93;;
13951;SDS011;39535;52.192;9.886;2023-03-26T01:03:15;4.63;;;3.20;;
13951;SDS011;39535;52.192;9.886;2023-03-26T01:05:44;6.70;;;4.33;;
13951;SDS011;39535;52.192;9.886;2023-03-26T01:08:18;5.57;;;3.90;;
13951;SDS011;39535;52.192;9.886;2023-03-26T01:10:51;5.37;;;3.47;;
13951;SDS011;39535;52.192;9.886;2023-03-26T01:13:26;6.07;;;3.70;;
13951;SDS011;39535;52.192;9.886;2023-03-26T01:15:55;4.17;;;3.63;;
13951;SDS011;39535;52.192;9.886;2023-03-26T01:18:22;3.77;;;3.33;;
13951;SDS011;39535;52.192;9.886;2023-03-26T01:20:50;4.80;;;3.63;;
13951;SDS011;39535;52.192;9.886;2023-03-26T01:23:25;4.63;;;3.17;;
13951;SDS011;39535;52.192;9.886;2023-03-26T01:26:04;5.63;;;3.80;;
13951;SDS011;39535;52.192;9.886;2023-03-26T01:28:37;5.30;;;3.30;;
13951;SDS011;39535;52.192;9.886;2023-03-26T01:31:06;5.90;;;3.47;;
13951;SDS011;39535;52.192;9.886;2023-03-26T01:33:38;4.00;;;2.60;;
13951;SDS011;39535;52.192;9.886;2023-03-26T01:36:13;3.10;;;2.80;;
13951;SDS011;39535;52.192;9.886;2023-03-26T01:38:47;5.80;;;2.77;;
13951;SDS011;39535;52.192;9.886;2023-03-26T01:41:22;3.03;;;2.37;;
13951;SDS011;39535;52.192;9.886;2023-03-26T01:43:56;3.73;;;2.13;;
13951;SDS011;39535;52.192;9.886;2023-03-26T01:46:29;5.00;;;2.70;;
13951;SDS011;39535;52.192;9.886;2023-03-26T01:49:00;4.80;;;2.57;;
13951;SDS011;39535;52.192;9.886;2023-03-26T01:51:29;5.20;;;2.73;;
13951;SDS011;39535;52.192;9.886;2023-03-26T01:53:58;3.70;;;2.43;;
13951;SDS011;39535;52.192;9.886;2023-03-26T01:56:29;4.40;;;2.17;;
13951;SDS011;39535;52.192;9.886;2023-03-26T01:59:03;3.53;;;2.30;;
13951;SDS011;39535;52.192;9.886;2023-03-26T02:01:38;3.97;;;2.37;;
13951;SDS011;39535;52.192;9.886;2023-03-26T02:04:12;2.70;;;2.03;;
13951;SDS011;39535;52.192;9.886;2023-03-26T02:06:46;1.97;;;1.80;;
13951;SDS011;39535;52.192;9.886;2023-03-26T02:09:19;1.87;;;1.43;;
13951;SDS011;39535;52.192;9.886;2023-03-26T02:11:51;3.60;;;1.67;;
13951;SDS011;39535;52.192;9.886;2023-03-26T02:14:18;1.90;;;1.70;;
13951;SDS011;39535;52.192;9.886;2023-03-26T02:16:45;2.80;;;1.73;;
13951;SDS011;39535;52.192;9.886;2023-03-26T02:19:12;2.33;;;1.97;;
13951;SDS011;39535;52.192;9.886;2023-03-26T02:21:39;5.00;;;2.30;;
13951;SDS011;39535;52.192;9.886;2023-03-26T02:24:06;4.37;;;2.47;;
13951;SDS011;39535;52.192;9.886;2023-03-26T02:26:34;2.40;;;2.20;;
13951;SDS011;39535;52.192;9.886;2023-03-26T02:29:02;4.10;;;2.50;;
13951;SDS011;39535;52.192;9.886;2023-03-26T02:31:29;3.83;;;2.63;;
13951;SDS011;39535;52.192;9.886;2023-03-26T02:33:55;2.87;;;2.43;;
13951;SDS011;39535;52.192;9.886;2023-03-26T02:36:22;4.43;;;2.73;;
13951;SDS011;39535;52.192;9.886;2023-03-26T02:38:51;3.80;;;2.60;;
13951;SDS011;39535;52.192;9.886;2023-03-26T02:41:17;4.87;;;2.40;;
13951;SDS011;39535;52.192;9.886;2023-03-26T02:43:44;5.43;;;2.77;;
13951;SDS011;39535;52.192;9.886;2023-03-26T02:46:12;3.00;;;2.07;;
13951;SDS011;39535;52.192;9.886;2023-03-26T02:48:38;2.67;;;1.90;;
13951;SDS011;39535;52.192;9.886;2023-03-26T02:51:05;4.40;;;2.00;;
13951;SDS011;39535;52.192;9.886;2023-03-26T02:53:32;3.47;;;2.17;;
13951;SDS011;39535;52.192;9.886;2023-03-26T02:56:01;2.87;;;2.10;;
13951;SDS011;39535;52.192;9.886;2023-03-26T02:58:28;4.57;;;2.17;;
13951;SDS011;39535;52.192;9.886;2023-03-26T03:00:55;5.70;;;2.90;;
13951;SDS011;39535;52.192;9.886;2023-03-26T03:03:23;5.53;;;2.53;;
13951;SDS011;39535;52.192;9.886;2023-03-26T03:05:50;4.90;;;2.80;;
13951;SDS011;39535;52.192;9.886;2023-03-26T03:08:17;10.97;;;2.87;;
13951;SDS011;39535;52.192;9.886;2023-03-26T03:10:53;5.63;;;3.20;;
13951;SDS011;39535;52.192;9.886;2023-03-26T03:13:21;3.93;;;3.60;;
13951;SDS011;39535;52.192;9.886;2023-03-26T03:15:47;5.43;;;2.90;;
13951;SDS011;39535;52.192;9.886;2023-03-26T03:18:13;4.03;;;2.63;;
13951;SDS011;39535;52.192;9.886;2023-03-26T03:20:41;4.20;;;3.23;;
13951;SDS011;39535;52.192;9.886;2023-03-26T03:23:07;4.27;;;3.10;;
13951;SDS011;39535;52.192;9.886;2023-03-26T03:25:33;5.30;;;2.93;;
13951;SDS011;39535;52.192;9.886;2023-03-26T03:28:00;3.30;;;3.00;;
13951;SDS011;39535;52.192;9.886;2023-03-26T03:30:27;9.50;;;2.77;;
13951;SDS011;39535;52.192;9.886;2023-03-26T03:32:53;4.50;;;3.23;;
13951;SDS011;39535;52.192;9.886;2023-03-26T03:35:22;4.43;;;2.97;;
13951;SDS011;39535;52.192;9.886;2023-03-26T03:37:50;3.63;;;2.47;;
13951;SDS011;39535;52.192;9.886;2023-03-26T03:40:16;4.07;;;3.10;;
13951;SDS011;39535;52.192;9.886;2023-03-26T03:42:43;4.67;;;2.40;;
13951;SDS011;39535;52.192;9.886;2023-03-26T03:45:10;5.07;;;2.87;;
13951;SDS011;39535;52.192;9.886;2023-03-26T03:47:37;4.90;;;2.57;;
13951;SDS011;39535;52.192;9.886;2023-03-26T03:50:04;3.77;;;2.27;;
13951;SDS011;39535;52.192;9.886;2023-03-26T03:52:31;4.17;;;2.57;;
13951;SDS011;39535;52.192;9.886;2023-03-26T03:54:59;3.37;;;2.40;;
13951;SDS011;39535;52.192;9.886;2023-03-26T03:57:25;6.73;;;3.30;;
13951;SDS011;39535;52.192;9.886;2023-03-26T03:59:52;4.10;;;2.87;;
13951;SDS011;39535;52.192;9.886;2023-03-26T04:02:22;4.90;;;3.70;;
13951;SDS011;39535;52.192;9.886;2023-03-26T04:04:54;8.47;;;3.13;;
13951;SDS011;39535;52.192;9.886;2023-03-26T04:07:21;6.47;;;3.47;;
13951;SDS011;39535;52.192;9.886;2023-03-26T04:09:48;3.03;;;2.70;;
13951;SDS011;39535;52.192;9.886;2023-03-26T04:12:16;8.60;;;3.27;;
13951;SDS011;39535;52.192;9.886;2023-03-26T04:14:42;6.53;;;3.40;;
13951;SDS011;39535;52.192;9.886;2023-03-26T04:17:08;4.90;;;2.93;;
13951;SDS011;39535;52.192;9.886;2023-03-26T04:19:37;4.00;;;3.20;;
13951;SDS011;39535;52.192;9.886;2023-03-26T04:22:03;4.57;;;3.23;;
13951;SDS011;39535;52.192;9.886;2023-03-26T04:24:30;4.70;;;2.83;;
13951;SDS011;39535;52.192;9.886;2023-03-26T04:26:58;5.77;;;3.30;;
13951;SDS011;39535;52.192;9.886;2023-03-26T04:29:27;6.83;;;3.83;;
13951;SDS011;39535;52.192;9.886;2023-03-26T04:31:56;5.43;;;4.00;;
13951;SDS011;39535;52.192;9.886;2023-03-26T04:34:30;4.93;;;4.43;;
13951;SDS011;39535;52.192;9.886;2023-03-26T04:36:58;6.13;;;4.33;;
13951;SDS011;39535;52.192;9.886;2023-03-26T04:39:25;9.50;;;4.97;;
13951;SDS011;39535;52.192;9.886;2023-03-26T04:41:53;3.07;;;2.80;;
13951;SDS011;39535;52.192;9.886;2023-03-26T04:44:19;3.67;;;3.00;;
13951;SDS011;39535;52.192;9.886;2023-03-26T04:46:47;6.90;;;3.93;;
13951;SDS011;39535;52.192;9.886;2023-03-26T04:49:14;7.70;;;4.63;;
13951;SDS011;39535;52.192;9.886;2023-03-26T04:51:40;7.57;;;5.33;;
13951;SDS011;39535;52.192;9.886;2023-03-26T04:54:08;4.53;;;3.87;;
13951;SDS011;39535;52.192;9.886;2023-03-26T04:56:38;4.93;;;4.50;;
13951;SDS011;39535;52.192;9.886;2023-03-26T04:59:08;8.80;;;4.57;;
13951;SDS011;39535;52.192;9.886;2023-03-26T05:01:38;7.37;;;5.13;;
13951;SDS011;39535;52.192;9.886;2023-03-26T05:04:07;8.47;;;5.17;;
13951;SDS011;39535;52.192;9.886;2023-03-26T05:06:33;7.27;;;5.03;;
13951;SDS011;39535;52.192;9.886;2023-03-26T05:09:02;7.70;;;5.60;;
13951;SDS011;39535;52.192;9.886;2023-03-26T05:11:29;7.80;;;5.97;;
13951;SDS011;39535;52.192;9.886;2023-03-26T05:13:55;7.07;;;4.87;;
13951;SDS011;39535;52.192;9.886;2023-03-26T05:16:21;6.13;;;5.23;;
13951;SDS011;39535;52.192;9.886;2023-03-26T05:18:49;5.77;;;4.97;;
13951;SDS011;39535;52.192;9.886;2023-03-26T05:21:16;7.67;;;4.70;;
13951;SDS011;39535;52.192;9.886;2023-03-26T05:23:43;6.63;;;5.33;;
13951;SDS011;39535;52.192;9.886;2023-03-26T05:26:09;7.00;;;5.73;;
13951;SDS011;39535;52.192;9.886;2023-03-26T05:28:36;7.47;;;5.57;;
13951;SDS011;39535;52.192;9.886;2023-03-26T05:31:02;6.50;;;5.47;;
13951;SDS011;39535;52.192;9.886;2023-03-26T05:33:29;7.27;;;5.30;;
13951;SDS011;39535;52.192;9.886;2023-03-26T05:35:59;19.97;;;7.03;;
13951;SDS011;39535;52.192;9.886;2023-03-26T05:38:27;7.47;;;5.53;;
13951;SDS011;39535;52.192;9.886;2023-03-26T05:40:58;7.87;;;5.67;;
13951;SDS011;39535;52.192;9.886;2023-03-26T05:43:24;10.03;;;5.87;;
13951;SDS011;39535;52.192;9.886;2023-03-26T05:45:51;8.07;;;5.60;;
13951;SDS011;39535;52.192;9.886;2023-03-26T05:48:17;7.30;;;5.23;;
13951;SDS011;39535;52.192;9.886;2023-03-26T05:50:46;8.70;;;5.23;;
13951;SDS011;39535;52.192;9.886;2023-03-26T05:53:13;10.60;;;5.93;;
13951;SDS011;39535;52.192;9.886;2023-03-26T05:55:41;7.40;;;5.13;;
13951;SDS011;39535;52.192;9.886;2023-03-26T05:58:09;8.43;;;5.37;;
13951;SDS011;39535;52.192;9.886;2023-03-26T06:00:36;7.17;;;5.00;;
13951;SDS011;39535;52.192;9.886;2023-03-26T06:03:03;6.07;;;4.97;;
13951;SDS011;39535;52.192;9.886;2023-03-26T06:05:30;7.30;;;4.70;;
13951;SDS011;39535;52.192;9.886;2023-03-26T06:07:58;7.70;;;5.43;;
13951;SDS011;39535;52.192;9.886;2023-03-26T06:10:24;5.57;;;5.07;;
13951;SDS011;39535;52.192;9.886;2023-03-26T06:12:52;5.50;;;4.97;;
13951;SDS011;39535;52.192;9.886;2023-03-26T06:15:18;9.07;;;5.77;;
13951;SDS011;39535;52.192;9.886;2023-03-26T06:17:45;6.87;;;5.80;;
13951;SDS011;39535;52.192;9.886;2023-03-26T06:20:12;9.13;;;6.27;;
13951;SDS011;39535;52.192;9.886;2023-03-26T06:22:39;12.07;;;5.97;;
13951;SDS011;39535;52.192;9.886;2023-03-26T06:25:06;7.07;;;5.07;;
13951;SDS011;39535;52.192;9.886;2023-03-26T06:27:33;7.17;;;5.47;;
13951;SDS011;39535;52.192;9.886;2023-03-26T06:30:00;11.80;;;5.63;;
13951;SDS011;39535;52.192;9.886;2023-03-26T06:32:27;8.57;;;5.53;;
13951;SDS011;39535;52.192;9.886;2023-03-26T06:34:53;9.30;;;5.63;;
13951;SDS011;39535;52.192;9.886;2023-03-26T06:37:20;8.77;;;5.80;;
13951;SDS011;39535;52.192;9.886;2023-03-26T06:39:46;10.07;;;6.63;;
13951;SDS011;39535;52.192;9.886;2023-03-26T06:42:12;9.67;;;5.07;;
13951;SDS011;39535;52.192;9.886;2023-03-26T06:44:39;7.27;;;5.93;;
13951;SDS011;39535;52.192;9.886;2023-03-26T06:47:06;7.50;;;5.67;;
13951;SDS011;39535;52.192;9.886;2023-03-26T06:49:33;8.83;;;5.00;;
13951;SDS011;39535;52.192;9.886;2023-03-26T06:51:59;7.23;;;6.27;;
13951;SDS011;39535;52.192;9.886;2023-03-26T06:54:26;6.97;;;5.20;;
13951;SDS011;39535;52.192;9.886;2023-03-26T06:56:53;7.67;;;5.13;;
13951;SDS011;39535;52.192;9.886;2023-03-26T06:59:19;8.33;;;5.30;;
13951;SDS011;39535;52.192;9.886;2023-03-26T07:01:46;8.20;;;5.57;;
13951;SDS011;39535;52.192;9.886;2023-03-26T07:04:13;10.43;;;5.20;;
13951;SDS011;39535;52.192;9.886;2023-03-26T07:06:40;5.37;;;4.03;;
13951;SDS011;39535;52.192;9.886;2023-03-26T07:09:06;5.83;;;3.80;;
13951;SDS011;39535;52.192;9.886;2023-03-26T07:11:33;7.53;;;4.53;;
13951;SDS011;39535;52.192;9.886;2023-03-26T07:13:59;5.20;;;3.53;;
13951;SDS011;39535;52.192;9.886;2023-03-26T07:16:25;5.73;;;3.87;;
13951;SDS011;39535;52.192;9.886;2023-03-26T07:18:52;3.03;;;2.70;;
13951;SDS011;39535;52.192;9.886;2023-03-26T07:21:20;4.37;;;3.50;;
13951;SDS011;39535;52.192;9.886;2023-03-26T07:23:48;4.20;;;2.97;;
13951;SDS011;39535;52.192;9.886;2023-03-26T07:26:19;9.40;;;3.30;;
13951;SDS011;39535;52.192;9.886;2023-03-26T07:28:53;7.90;;;3.70;;
13951;SDS011;39535;52.192;9.886;2023-03-26T07:31:25;5.53;;;2.93;;
13951;SDS011;39535;52.192;9.886;2023-03-26T07:34:00;4.47;;;2.80;;
13951;SDS011;39535;52.192;9.886;2023-03-26T07:36:38;4.03;;;2.83;;
13951;SDS011;39535;52.192;9.886;2023-03-26T07:39:14;3.93;;;3.07;;
13951;SDS011;39535;52.192;9.886;2023-03-26T07:41:52;4.67;;;2.80;;
13951;SDS011;39535;52.192;9.886;2023-03-26T07:44:35;4.83;;;2.73;;
13951;SDS011;39535;52.192;9.886;2023-03-26T07:47:16;3.63;;;2.50;;
13951;SDS011;39535;52.192;9.886;2023-03-26T07:49:50;5.67;;;2.43;;
13951;SDS011;39535;52.192;9.886;2023-03-26T07:52:19;5.57;;;3.30;;
13951;SDS011;39535;52.192;9.886;2023-03-26T07:54:46;5.47;;;3.33;;
13951;SDS011;39535;52.192;9.886;2023-03-26T07:57:15;3.87;;;2.97;;
13951;SDS011;39535;52.192;9.886;2023-03-26T07:59:51;6.37;;;2.20;;
13951;SDS011;39535;52.192;9.886;2023-03-26T08:05:19;6.87;;;2.43;;
13951;SDS011;39535;52.192;9.886;2023-03-26T08:07:57;4.63;;;1.60;;
13951;SDS011;39535;52.192;9.886;2023-03-26T08:10:34;3.10;;;2.00;;
13951;SDS011;39535;52.192;9.886;2023-03-26T08:13:09;4.53;;;2.80;;
13951;SDS011;39535;52.192;9.886;2023-03-26T08:15:48;2.53;;;1.97;;
13951;SDS011;39535;52.192;9.886;2023-03-26T08:18:25;3.07;;;1.80;;
13951;SDS011;39535;52.192;9.886;2023-03-26T08:21:05;3.53;;;2.07;;
13951;SDS011;39535;52.192;9.886;2023-03-26T08:23:51;3.97;;;1.90;;
13951;SDS011;39535;52.192;9.886;2023-03-26T08:26:27;3.87;;;2.20;;
13951;SDS011;39535;52.192;9.886;2023-03-26T08:29:00;5.17;;;2.90;;
13951;SDS011;39535;52.192;9.886;2023-03-26T08:31:36;6.90;;;3.90;;
13951;SDS011;39535;52.192;9.886;2023-03-26T08:34:04;4.30;;;2.73;;
13951;SDS011;39535;52.192;9.886;2023-03-26T08:36:31;6.83;;;2.37;;
13951;SDS011;39535;52.192;9.886;2023-03-26T08:38:58;5.87;;;2.03;;
13951;SDS011;39535;52.192;9.886;2023-03-26T08:41:30;5.77;;;2.10;;
13951;SDS011;39535;52.192;9.886;2023-03-26T08:44:22;3.47;;;2.33;;
13951;SDS011;39535;52.192;9.886;2023-03-26T08:47:18;10.93;;;3.33;;
13951;SDS011;39535;52.192;9.886;2023-03-26T08:50:17;3.80;;;1.97;;
13951;SDS011;39535;52.192;9.886;2023-03-26T08:52:58;3.90;;;1.87;;
13951;SDS011;39535;52.192;9.886;2023-03-26T08:55:49;3.70;;;2.27;;
13951;SDS011;39535;52.192;9.886;2023-03-26T08:58:38;4.37;;;2.80;;
13951;SDS011;39535;52.192;9.886;2023-03-26T09:01:33;5.17;;;2.37;;
13951;SDS011;39535;52.192;9.886;2023-03-26T09:07:17;5.10;;;2.13;;
13951;SDS011;39535;52.192;9.886;2023-03-26T09:16:10;4.97;;;2.13;;
13951;SDS011;39535;52.192;9.886;2023-03-26T09:25:24;9.00;;;2.90;;
13951;SDS011;39535;52.192;9.886;2023-03-26T09:28:20;4.00;;;3.07;;
13951;SDS011;39535;52.192;9.886;2023-03-26T09:31:13;8.27;;;7.33;;
13951;SDS011;39535;52.192;9.886;2023-03-26T09:33:58;4.73;;;4.17;;
13951;SDS011;39535;52.192;9.886;2023-03-26T09:39:44;5.60;;;3.80;;
13951;SDS011;39535;52.192;9.886;2023-03-26T09:42:20;4.07;;;2.93;;
13951;SDS011;39535;52.192;9.886;2023-03-26T09:48:01;5.37;;;2.70;;
13951;SDS011;39535;52.192;9.886;2023-03-26T09:53:42;4.43;;;2.87;;
13951;SDS011;39535;52.192;9.886;2023-03-26T09:56:24;5.83;;;3.20;;
13951;SDS011;39535;52.192;9.886;2023-03-26T09:59:07;6.13;;;2.70;;
13951;SDS011;39535;52.192;9.886;2023-03-26T10:01:55;4.27;;;2.47;;
13951;SDS011;39535;52.192;9.886;2023-03-26T10:04:32;5.83;;;3.20;;
13951;SDS011;39535;52.192;9.886;2023-03-26T10:07:12;7.33;;;3.50;;
13951;SDS011;39535;52.192;9.886;2023-03-26T10:09:56;4.93;;;3.57;;
13951;SDS011;39535;52.192;9.886;2023-03-26T10:12:30;5.07;;;3.10;;
13951;SDS011;39535;52.192;9.886;2023-03-26T10:15:03;5.17;;;3.40;;
13951;SDS011;39535;52.192;9.886;2023-03-26T10:17:48;6.13;;;3.20;;
13951;SDS011;39535;52.192;9.886;2023-03-26T10:20:44;3.50;;;2.97;;
13951;SDS011;39535;52.192;9.886;2023-03-26T10:23:30;3.80;;;2.83;;
13951;SDS011;39535;52.192;9.886;2023-03-26T10:26:09;4.23;;;3.03;;
13951;SDS011;39535;52.192;9.886;2023-03-26T10:29:02;3.63;;;2.90;;
13951;SDS011;39535;52.192;9.886;2023-03-26T10:31:41;4.93;;;3.10;;
13951;SDS011;39535;52.192;9.886;2023-03-26T10:34:23;4.13;;;2.83;;
13951;SDS011;39535;52.192;9.886;2023-03-26T10:37:06;4.23;;;2.70;;
13951;SDS011;39535;52.192;9.886;2023-03-26T10:42:58;3.17;;;2.77;;
13951;SDS011;39535;52.192;9.886;2023-03-26T10:45:42;4.17;;;3.10;;
13951;SDS011;39535;52.192;9.886;2023-03-26T10:51:24;3.70;;;2.70;;
13951;SDS011;39535;52.192;9.886;2023-03-26T10:53:57;4.53;;;3.50;;
13951;SDS011;39535;52.192;9.886;2023-03-26T10:56:27;4.60;;;2.87;;
13951;SDS011;39535;52.192;9.886;2023-03-26T10:58:57;3.67;;;3.17;;
13951;SDS011;39535;52.192;9.886;2023-03-26T11:01:34;4.37;;;2.80;;
13951;SDS011;39535;52.192;9.886;2023-03-26T11:04:08;3.20;;;2.77;;
13951;SDS011;39535;52.192;9.886;2023-03-26T11:06:50;3.87;;;3.47;;
13951;SDS011;39535;52.192;9.886;2023-03-26T11:09:26;9.73;;;4.10;;
13951;SDS011;39535;52.192;9.886;2023-03-26T11:12:00;4.30;;;3.70;;
13951;SDS011;39535;52.192;9.886;2023-03-26T11:14:34;4.50;;;3.67;;
13951;SDS011;39535;52.192;9.886;2023-03-26T11:17:11;4.20;;;3.07;;
13951;SDS011;39535;52.192;9.886;2023-03-26T11:19:48;4.70;;;3.13;;
13951;SDS011;39535;52.192;9.886;2023-03-26T11:22:22;4.37;;;2.90;;
13951;SDS011;39535;52.192;9.886;2023-03-26T11:25:02;3.90;;;2.87;;
13951;SDS011;39535;52.192;9.886;2023-03-26T11:27:46;6.03;;;2.87;;
13951;SDS011;39535;52.192;9.886;2023-03-26T11:30:26;2.87;;;2.30;;
13951;SDS011;39535;52.192;9.886;2023-03-26T11:32:59;5.40;;;2.93;;
13951;SDS011;39535;52.192;9.886;2023-03-26T11:35:29;3.43;;;2.40;;
13951;SDS011;39535;52.192;9.886;2023-03-26T11:38:00;4.87;;;2.70;;
13951;SDS011;39535;52.192;9.886;2023-03-26T11:40:31;3.47;;;2.83;;
13951;SDS011;39535;52.192;9.886;2023-03-26T11:43:01;4.10;;;2.63;;
13951;SDS011;39535;52.192;9.886;2023-03-26T11:45:30;4.43;;;2.40;;
13951;SDS011;39535;52.192;9.886;2023-03-26T11:48:00;2.70;;;2.33;;
13951;SDS011;39535;52.192;9.886;2023-03-26T11:50:33;4.00;;;3.00;;
13951;SDS011;39535;52.192;9.886;2023-03-26T11:53:10;9.43;;;3.27;;
13951;SDS011;39535;52.192;9.886;2023-03-26T11:55:39;4.17;;;2.57;;
13951;SDS011;39535;52.192;9.886;2023-03-26T11:58:11;3.97;;;2.90;;
13951;SDS011;39535;52.192;9.886;2023-03-26T12:00:48;4.37;;;2.63;;
13951;SDS011;39535;52.192;9.886;2023-03-26T12:03:17;4.20;;;2.90;;
13951;SDS011;39535;52.192;9.886;2023-03-26T12:05:46;5.03;;;3.07;;
13951;SDS011;39535;52.192;9.886;2023-03-26T12:08:18;5.47;;;3.20;;
13951;SDS011;39535;52.192;9.886;2023-03-26T12:10:49;5.27;;;3.00;;
13951;SDS011;39535;52.192;9.886;2023-03-26T12:13:27;6.57;;;3.07;;
13951;SDS011;39535;52.192;9.886;2023-03-26T12:15:57;4.97;;;3.50;;
13951;SDS011;39535;52.192;9.886;2023-03-26T12:18:29;5.10;;;3.83;;
13951;SDS011;39535;52.192;9.886;2023-03-26T12:21:03;4.23;;;3.30;;
13951;SDS011;39535;52.192;9.886;2023-03-26T12:23:43;4.23;;;3.43;;
13951;SDS011;39535;52.192;9.886;2023-03-26T12:26:17;5.20;;;3.70;;
13951;SDS011;39535;52.192;9.886;2023-03-26T12:28:46;3.57;;;3.20;;
13951;SDS011;39535;52.192;9.886;2023-03-26T12:31:14;5.00;;;3.37;;
13951;SDS011;39535;52.192;9.886;2023-03-26T12:33:43;6.40;;;2.93;;
13951;SDS011;39535;52.192;9.886;2023-03-26T12:36:15;5.10;;;3.30;;
13951;SDS011;39535;52.192;9.886;2023-03-26T12:38:48;8.07;;;3.70;;
13951;SDS011;39535;52.192;9.886;2023-03-26T12:41:15;6.27;;;3.40;;
13951;SDS011;39535;52.192;9.886;2023-03-26T12:43:43;6.40;;;3.30;;
13951;SDS011;39535;52.192;9.886;2023-03-26T12:46:18;5.23;;;3.37;;
13951;SDS011;39535;52.192;9.886;2023-03-26T12:48:49;6.07;;;3.50;;
13951;SDS011;39535;52.192;9.886;2023-03-26T12:51:18;5.43;;;3.57;;
13951;SDS011;39535;52.192;9.886;2023-03-26T12:53:58;8.93;;;3.90;;
13951;SDS011;39535;52.192;9.886;2023-03-26T12:56:38;6.47;;;2.97;;
13951;SDS011;39535;52.192;9.886;2023-03-26T12:59:15;4.00;;;2.97;;
13951;SDS011;39535;52.192;9.886;2023-03-26T13:01:52;6.17;;;3.40;;
13951;SDS011;39535;52.192;9.886;2023-03-26T13:04:28;6.73;;;3.80;;
13951;SDS011;39535;52.192;9.886;2023-03-26T13:07:09;6.40;;;3.80;;
13951;SDS011;39535;52.192;9.886;2023-03-26T13:12:51;6.63;;;3.97;;
13951;SDS011;39535;52.192;9.886;2023-03-26T13:15:30;5.97;;;3.40;;
13951;SDS011;39535;52.192;9.886;2023-03-26T13:18:03;6.63;;;5.17;;
13951;SDS011;39535;52.192;9.886;2023-03-26T13:20:47;4.93;;;3.50;;
13951;SDS011;39535;52.192;9.886;2023-03-26T13:23:21;5.43;;;3.60;;
13951;SDS011;39535;52.192;9.886;2023-03-26T13:26:01;4.10;;;3.30;;
13951;SDS011;39535;52.192;9.886;2023-03-26T13:28:37;3.73;;;3.10;;
13951;SDS011;39535;52.192;9.886;2023-03-26T13:31:12;6.23;;;3.70;;
13951;SDS011;39535;52.192;9.886;2023-03-26T13:33:46;5.97;;;3.10;;
13951;SDS011;39535;52.192;9.886;2023-03-26T13:36:20;3.57;;;3.23;;
13951;SDS011;39535;52.192;9.886;2023-03-26T13:39:05;6.40;;;3.77;;
13951;SDS011;39535;52.192;9.886;2023-03-26T13:41:45;6.10;;;3.53;;
13951;SDS011;39535;52.192;9.886;2023-03-26T13:44:25;4.00;;;3.60;;
13951;SDS011;39535;52.192;9.886;2023-03-26T13:47:02;4.53;;;3.87;;
13951;SDS011;39535;52.192;9.886;2023-03-26T13:49:36;3.87;;;3.23;;
13951;SDS011;39535;52.192;9.886;2023-03-26T13:52:07;3.97;;;3.50;;
13951;SDS011;39535;52.192;9.886;2023-03-26T13:54:38;4.30;;;3.40;;
13951;SDS011;39535;52.192;9.886;2023-03-26T13:57:13;3.50;;;2.70;;
13951;SDS011;39535;52.192;9.886;2023-03-26T13:59:49;5.17;;;2.90;;
13951;SDS011;39535;52.192;9.886;2023-03-26T14:02:21;3.42;;;3.08;;
13951;SDS011;39535;52.192;9.886;2023-03-26T14:04:53;2.93;;;2.23;;
13951;SDS011;39535;52.192;9.886;2023-03-26T14:07:24;1.93;;;1.80;;
13951;SDS011;39535;52.192;9.886;2023-03-26T14:09:55;2.53;;;1.73;;
13951;SDS011;39535;52.192;9.886;2023-03-26T14:12:35;3.50;;;1.80;;
13951;SDS011;39535;52.192;9.886;2023-03-26T14:15:13;1.80;;;1.30;;
13951;SDS011;39535;52.192;9.886;2023-03-26T14:17:43;2.43;;;1.30;;
13951;SDS011;39535;52.192;9.886;2023-03-26T14:23:16;1.73;;;1.30;;
13951;SDS011;39535;52.192;9.886;2023-03-26T14:26:00;1.20;;;1.00;;
13951;SDS011;39535;52.192;9.886;2023-03-26T14:28:50;1.40;;;1.10;;
13951;SDS011;39535;52.192;9.886;2023-03-26T14:31:35;1.87;;;1.50;;
13951;SDS011;39535;52.192;9.886;2023-03-26T14:34:22;1.50;;;1.33;;
13951;SDS011;39535;52.192;9.886;2023-03-26T14:43:16;1.73;;;1.13;;
13951;SDS011;39535;52.192;9.886;2023-03-26T14:46:06;1.00;;;1.00;;
13951;SDS011;39535;52.192;9.886;2023-03-26T14:48:53;1.10;;;1.00;;
13951;SDS011;39535;52.192;9.886;2023-03-26T14:51:32;1.40;;;1.30;;
13951;SDS011;39535;52.192;9.886;2023-03-26T14:54:16;1.30;;;1.17;;
13951;SDS011;39535;52.192;9.886;2023-03-26T14:56:51;1.17;;;1.07;;
13951;SDS011;39535;52.192;9.886;2023-03-26T14:59:30;2.73;;;1.20;;
13951;SDS011;39535;52.192;9.886;2023-03-26T15:08:35;1.30;;;1.20;;
13951;SDS011;39535;52.192;9.886;2023-03-26T15:11:29;1.57;;;1.20;;
13951;SDS011;39535;52.192;9.886;2023-03-26T15:14:09;1.40;;;1.10;;
13951;SDS011;39535;52.192;9.886;2023-03-26T15:17:08;1.77;;;1.20;;
13951;SDS011;39535;52.192;9.886;2023-03-26T15:20:03;1.87;;;1.13;;
13951;SDS011;39535;52.192;9.886;2023-03-26T15:23:10;1.03;;;0.80;;
13951;SDS011;39535;52.192;9.886;2023-03-26T15:26:02;1.13;;;0.93;;
13951;SDS011;39535;52.192;9.886;2023-03-26T15:29:01;1.10;;;1.00;;
13951;SDS011;39535;52.192;9.886;2023-03-26T15:31:58;2.80;;;1.03;;
13951;SDS011;39535;52.192;9.886;2023-03-26T15:40:46;1.73;;;0.90;;
13951;SDS011;39535;52.192;9.886;2023-03-26T15:43:21;1.20;;;0.83;;
13951;SDS011;39535;52.192;9.886;2023-03-26T15:45:56;1.63;;;0.80;;
13951;SDS011;39535;52.192;9.886;2023-03-26T15:48:54;1.77;;;0.80;;
13951;SDS011;39535;52.192;9.886;2023-03-26T15:51:36;1.90;;;1.10;;
13951;SDS011;39535;52.192;9.886;2023-03-26T15:54:21;2.03;;;1.10;;
13951;SDS011;39535;52.192;9.886;2023-03-26T15:56:56;1.50;;;1.00;;
13951;SDS011;39535;52.192;9.886;2023-03-26T15:59:40;1.30;;;1.10;;
13951;SDS011;39535;52.192;9.886;2023-03-26T16:02:15;2.60;;;1.43;;
13951;SDS011;39535;52.192;9.886;2023-03-26T16:04:52;1.30;;;1.20;;
13951;SDS011;39535;52.192;9.886;2023-03-26T16:07:35;2.40;;;1.27;;
13951;SDS011;39535;52.192;9.886;2023-03-26T16:10:15;2.17;;;1.40;;
13951;SDS011;39535;52.192;9.886;2023-03-26T16:12:52;3.03;;;1.83;;
13951;SDS011;39535;52.192;9.886;2023-03-26T16:15:27;3.50;;;2.13;;
13951;SDS011;39535;52.192;9.886;2023-03-26T16:21:00;5.07;;;2.80;;
13951;SDS011;39535;52.192;9.886;2023-03-26T16:23:31;2.50;;;2.30;;
13951;SDS011;39535;52.192;9.886;2023-03-26T16:26:11;2.50;;;2.30;;